Time;durP1;ratioP1;P1;durP2;ratioP2;P2;SDS_P1;SDS_P2;PMS_P1;PMS_P2;Temp;Humidity;BMP_temperature;BMP_pressure;BME280_temperature;BME280_humidity;BME280_pressure;Samples;Min_cycle;Max_cycle;Signal;HPM_P1;HPM_P2
2021/03/21 00:00:38;;;;;;;8.65;4.97;;;4.30;44.50;;;3.21;38.31;99099.94;5107221;28;20432;-82
2021/03/21 00:03:05;;;;;;;6.67;4.63;;;4.40;44.80;;;3.21;38.56;99092.91;5107257;28;20882;-83
2021/03/21 00:05:35;;;;;;;7.53;4.30;;;4.30;44.80;;;3.18;38.37;99087.97;5072678;28;20417;-84
2021/03/21 00:08:10;;;;;;;6.95;4.50;;;4.30;44.80;;;3.14;38.55;99084.06;5105696;28;20461;-85
2021/03/21 00:10:40;;;;;;;7.93;4.80;;;4.30;44.90;;;3.18;38.49;99087.97;5105480;28;20414;-84
2021/03/21 00:13:06;;;;;;;8.52;4.85;;;4.30;44.90;;;3.16;38.56;99089.16;5104888;28;20481;-85
2021/03/21 00:15:35;;;;;;;7.18;4.32;;;4.40;44.90;;;3.06;38.22;99084.88;5109800;28;20710;-84
2021/03/21 00:18:01;;;;;;;8.40;4.30;;;4.30;44.70;;;3.17;38.50;99082.91;5111032;28;20413;-83
2021/03/21 00:20:37;;;;;;;7.68;4.70;;;4.30;44.80;;;3.05;38.69;99085.84;5107044;28;20725;-85
2021/03/21 00:23:05;;;;;;;8.98;4.70;;;4.30;44.80;;;3.20;38.19;99083.41;5107805;28;20745;-85
2021/03/21 00:25:37;;;;;;;8.57;4.63;;;4.30;44.90;;;3.16;38.51;99089.16;5091534;28;20486;-83
2021/03/21 00:28:10;;;;;;;9.68;5.28;;;4.30;45.00;;;3.14;38.49;99088.47;5105328;28;20397;-83
2021/03/21 00:30:41;;;;;;;8.50;4.55;;;4.30;44.90;;;3.08;38.66;99085.50;5103109;28;20641;-83
2021/03/21 00:33:12;;;;;;;9.88;5.05;;;4.20;45.00;;;3.06;38.58;99082.25;5102533;28;20413;-83
2021/03/21 00:35:42;;;;;;;7.88;4.82;;;4.30;45.00;;;3.07;39.12;99089.13;5102646;28;20413;-85
2021/03/21 00:38:19;;;;;;;9.73;4.72;;;4.20;45.40;;;3.00;39.22;99085.53;5105256;28;20656;-86
2021/03/21 00:40:48;;;;;;;8.77;4.95;;;4.20;45.40;;;2.81;39.08;99079.75;5108418;28;20418;-85
2021/03/21 00:43:18;;;;;;;8.33;5.00;;;4.00;45.40;;;2.63;39.88;99077.28;5106765;28;20402;-86
2021/03/21 00:45:45;;;;;;;10.88;5.95;;;3.90;46.20;;;2.60;39.87;99073.16;5087453;28;20401;-85
2021/03/21 00:48:18;;;;;;;10.30;5.22;;;3.80;46.40;;;2.68;39.97;99060.13;5103757;28;20410;-83
2021/03/21 00:50:45;;;;;;;9.13;5.22;;;3.80;46.50;;;2.72;39.59;99061.41;5106385;28;20420;-84
2021/03/21 00:53:13;;;;;;;8.43;4.70;;;3.90;46.30;;;2.74;39.65;99058.66;5108301;28;20402;-84
2021/03/21 00:55:43;;;;;;;9.20;4.40;;;4.00;46.10;;;2.80;39.59;99058.00;5107442;28;20397;-84
2021/03/21 00:58:12;;;;;;;9.30;4.30;;;4.00;46.10;;;2.80;39.64;99067.66;5088342;28;20765;-82
2021/03/21 01:00:45;;;;;;;10.70;4.50;;;4.00;46.10;;;2.69;39.33;99058.31;5105602;28;20425;-84
2021/03/21 01:03:12;;;;;;;6.45;4.28;;;3.90;46.10;;;2.68;39.77;99049.66;5106956;28;20787;-85
2021/03/21 01:05:43;;;;;;;7.75;4.25;;;3.90;46.10;;;2.68;39.58;99041.81;5107998;28;20815;-83
2021/03/21 01:08:22;;;;;;;7.78;4.22;;;3.90;46.10;;;2.68;39.45;99049.66;5107964;28;20398;-84
2021/03/21 01:10:50;;;;;;;6.63;4.32;;;3.90;45.90;;;2.60;39.63;99048.81;5093593;28;20401;-84
2021/03/21 01:13:17;;;;;;;8.07;4.25;;;3.80;45.90;;;2.52;39.66;99047.00;5117596;28;20394;-83
2021/03/21 01:15:45;;;;;;;9.68;4.65;;;3.70;45.80;;;2.42;39.74;99054.16;5118104;28;20473;-84
2021/03/21 01:18:18;;;;;;;8.60;4.57;;;3.70;46.20;;;2.42;39.86;99040.25;5100152;28;20441;-84
2021/03/21 01:20:45;;;;;;;9.07;4.50;;;3.60;46.20;;;2.46;39.98;99033.75;5095230;28;20422;-83
2021/03/21 01:23:11;;;;;;;7.90;4.28;;;3.70;46.50;;;2.52;39.91;99031.31;5104711;28;20717;-85
2021/03/21 01:25:39;;;;;;;7.50;4.30;;;3.70;46.30;;;2.55;39.82;99030.19;5106070;28;20823;-84
2021/03/21 01:28:21;;;;;;;6.45;4.57;;;3.70;46.30;;;2.61;39.52;99022.53;5087543;28;20825;-85
2021/03/21 01:30:52;;;;;;;8.35;4.72;;;3.80;46.10;;;2.61;39.59;99026.94;5104993;28;20441;-85
2021/03/21 01:33:19;;;;;;;7.38;4.45;;;3.80;46.00;;;2.55;39.31;99031.00;5105394;28;20417;-85
2021/03/21 01:35:50;;;;;;;7.20;4.70;;;3.80;45.90;;;2.46;39.43;99026.72;5088082;28;20478;-85
2021/03/21 01:38:18;;;;;;;7.10;4.22;;;3.70;45.90;;;2.46;40.07;99021.50;5105070;28;20409;-85
2021/03/21 01:40:53;;;;;;;9.15;4.40;;;3.70;46.50;;;2.45;39.62;99017.25;5105062;28;20413;-85
2021/03/21 01:43:27;;;;;;;7.70;4.60;;;3.70;46.30;;;2.43;40.22;99003.53;5104868;28;20413;-85
2021/03/21 01:45:53;;;;;;;11.48;4.80;;;3.70;46.40;;;2.43;40.26;99008.75;5104699;28;20842;-83
2021/03/21 01:48:33;;;;;;;9.30;4.60;;;3.70;46.80;;;2.38;40.18;99002.38;5110698;28;20390;-84
2021/03/21 01:51:04;;;;;;;11.20;4.50;;;3.60;46.40;;;2.37;40.36;98998.13;5116969;28;20461;-85
2021/03/21 01:53:39;;;;;;;8.50;4.33;;;3.60;46.90;;;2.46;40.17;98994.56;5107357;28;20418;-84
2021/03/21 01:56:07;;;;;;;7.20;4.78;;;3.60;46.90;;;2.43;40.53;98995.69;5106124;28;20393;-85
2021/03/21 01:58:34;;;;;;;8.20;4.75;;;3.60;47.10;;;2.40;40.53;98996.03;5104757;28;20420;-85
2021/03/21 02:01:08;;;;;;;7.10;4.27;;;3.60;47.00;;;2.44;40.64;98997.31;5104589;28;20425;-85
2021/03/21 02:03:34;;;;;;;6.63;4.38;;;3.60;47.30;;;2.44;40.52;98994.72;5104725;28;20464;-85
2021/03/21 02:06:15;;;;;;;11.55;4.55;;;3.60;47.10;;;2.49;40.96;98992.41;5103507;28;20405;-85
2021/03/21 02:08:52;;;;;;;6.85;4.40;;;3.60;47.60;;;2.41;40.95;98986.34;5103851;28;20431;-85
2021/03/21 02:11:36;;;;;;;6.07;4.30;;;3.70;47.60;;;2.47;41.24;98989.16;5105644;28;20413;-85
2021/03/21 02:14:13;;;;;;;6.25;4.53;;;3.60;47.80;;;2.54;41.28;98994.56;5105746;28;20877;-85
2021/03/21 02:16:53;;;;;;;7.72;4.90;;;3.70;47.70;;;2.56;41.15;98976.91;5105201;28;20427;-85
2021/03/21 02:19:58;;;;;;;7.07;4.82;;;3.80;48.00;;;2.50;41.43;98983.59;5105085;28;20470;-85
2021/03/21 02:22:29;;;;;;;7.25;4.70;;;3.70;47.80;;;2.55;41.33;98970.06;5104904;28;20409;-85
2021/03/21 02:25:37;;;;;;;11.93;4.40;;;3.80;48.00;;;2.50;41.64;98970.53;5104165;28;20434;-85
2021/03/21 02:28:27;;;;;;;7.03;4.47;;;3.70;48.20;;;2.61;41.52;98975.47;5102096;28;20438;-82
2021/03/21 02:30:59;;;;;;;11.32;4.90;;;3.70;48.30;;;2.59;41.04;98974.00;5104038;28;20406;-85
2021/03/21 02:33:31;;;;;;;8.52;4.43;;;3.80;47.80;;;2.62;41.19;98966.66;5085416;28;20548;-85
2021/03/21 02:36:11;;;;;;;6.80;4.20;;;3.80;47.80;;;2.57;41.27;98963.69;5086141;28;20417;-85
2021/03/21 02:38:48;;;;;;;7.57;4.28;;;3.80;47.90;;;2.57;41.22;98962.88;5103488;28;20470;-84
2021/03/21 02:41:23;;;;;;;7.63;4.32;;;3.80;47.90;;;2.52;41.14;98954.69;5104156;28;20417;-84
2021/03/21 02:43:55;;;;;;;8.93;4.60;;;3.70;47.70;;;2.52;41.45;98949.47;5103020;28;20693;-86
2021/03/21 02:46:26;;;;;;;8.43;4.43;;;3.70;48.00;;;2.47;41.87;98960.41;5107145;28;20491;-84
2021/03/21 02:48:59;;;;;;;6.68;4.40;;;3.70;48.30;;;2.44;41.46;98957.28;5108774;28;20474;-84
2021/03/21 02:51:29;;;;;;;8.20;4.23;;;3.70;48.20;;;2.48;41.69;98956.81;5110529;28;20454;-85
2021/03/21 02:54:01;;;;;;;6.73;4.30;;;3.70;48.30;;;2.51;41.53;98947.84;5101417;28;20420;-83
2021/03/21 02:56:30;;;;;;;8.23;4.87;;;3.70;48.20;;;2.46;42.12;98950.94;5101558;28;20413;-84
2021/03/21 02:59:05;;;;;;;7.90;5.30;;;3.60;48.60;;;2.53;41.79;98941.47;5102758;28;20429;-85
2021/03/21 03:01:38;;;;;;;10.07;5.53;;;3.70;48.60;;;2.53;41.44;98943.28;5102704;28;20487;-85
2021/03/21 03:04:10;;;;;;;9.25;4.88;;;3.70;48.30;;;2.53;41.67;98935.44;5102971;28;20420;-85
2021/03/21 03:06:42;;;;;;;5.88;4.35;;;3.70;48.40;;;2.60;41.50;98934.63;5101385;28;20409;-85
2021/03/21 03:09:14;;;;;;;7.28;4.30;;;3.80;48.60;;;2.59;41.42;98925.13;5102667;28;20418;-85
2021/03/21 03:11:47;;;;;;;7.00;4.55;;;3.70;48.30;;;2.58;41.81;98923.50;5103086;28;20406;-84
2021/03/21 03:14:17;;;;;;;7.55;4.88;;;3.80;48.80;;;2.48;42.08;98916.81;5102338;28;20517;-84
2021/03/21 03:16:54;;;;;;;7.43;4.70;;;3.70;48.90;;;2.42;42.40;98923.47;5102761;28;20803;-85
2021/03/21 03:19:33;;;;;;;9.07;4.70;;;3.70;49.10;;;2.50;42.28;98918.25;5101801;28;20406;-84
2021/03/21 03:22:03;;;;;;;7.75;4.50;;;3.70;49.00;;;2.56;42.02;98920.22;5101600;28;20422;-84
2021/03/21 03:24:41;;;;;;;6.83;4.47;;;3.70;49.10;;;2.57;41.67;98921.03;5102388;28;20405;-85
2021/03/21 03:27:17;;;;;;;5.35;4.18;;;3.70;49.60;;;2.50;42.13;98915.66;5105613;28;20467;-84
2021/03/21 03:29:55;;;;;;;9.18;4.68;;;3.70;48.80;;;2.50;42.47;98907.81;5106565;28;20520;-84
2021/03/21 03:32:24;;;;;;;8.02;4.80;;;3.70;49.20;;;2.54;42.57;98898.69;5105532;28;20418;-84
2021/03/21 03:34:55;;;;;;;5.47;4.10;;;3.70;49.20;;;2.53;42.30;98899.66;5105230;28;20433;-84
2021/03/21 03:37:22;;;;;;;8.88;4.60;;;3.70;49.30;;;2.58;42.08;98905.22;5103527;28;20406;-84
2021/03/21 03:39:48;;;;;;;10.02;4.50;;;3.70;49.30;;;2.54;42.49;98903.09;5089510;28;20416;-84
2021/03/21 03:42:25;;;;;;;10.32;5.00;;;3.80;49.30;;;2.58;42.29;98896.53;5091040;28;20410;-84
2021/03/21 03:45:04;;;;;;;10.05;4.85;;;3.70;49.30;;;2.46;42.46;98890.03;5103006;28;20423;-84
2021/03/21 03:47:42;;;;;;;8.05;4.53;;;3.70;49.30;;;2.46;42.62;98884.78;5110185;28;20759;-84
2021/03/21 03:50:16;;;;;;;7.43;4.57;;;3.60;49.50;;;2.51;42.73;98888.53;5113947;28;20480;-83
2021/03/21 03:53:04;;;;;;;7.22;4.68;;;3.70;49.70;;;2.41;42.67;98893.09;5107263;28;20417;-85
2021/03/21 03:55:42;;;;;;;6.78;4.30;;;3.70;49.60;;;2.30;43.40;98890.81;5105681;28;20704;-85
2021/03/21 03:58:16;;;;;;;6.38;4.43;;;3.50;50.00;;;2.27;43.15;98904.19;5105213;28;20402;-85
2021/03/21 04:00:50;;;;;;;11.63;4.25;;;3.50;50.00;;;2.32;43.36;98899.31;5104183;28;20414;-85
2021/03/21 04:03:31;;;;;;;6.47;4.22;;;3.50;50.30;;;2.31;43.27;98895.06;5101656;28;20437;-82
2021/03/21 04:06:00;;;;;;;9.00;4.55;;;3.50;50.30;;;2.28;43.39;98898.81;5101571;28;20412;-83
2021/03/21 04:08:48;;;;;;;8.88;4.80;;;3.50;50.50;;;2.40;43.34;98894.09;5101483;28;20398;-84
2021/03/21 04:11:20;;;;;;;6.75;4.60;;;3.50;50.60;;;2.43;43.48;98880.69;5101446;28;20405;-84
2021/03/21 04:13:54;;;;;;;7.00;4.20;;;3.60;50.50;;;2.47;43.50;98883.81;5101779;28;20421;-83
2021/03/21 04:16:29;;;;;;;5.60;4.03;;;3.70;50.50;;;2.58;43.45;98880.88;5102563;28;20819;-84
2021/03/21 04:19:02;;;;;;;7.38;4.43;;;3.70;50.60;;;2.59;43.24;98883.31;5106685;28;20497;-84
2021/03/21 04:21:35;;;;;;;9.18;4.40;;;3.80;50.20;;;2.67;43.16;98882.50;5105899;28;20487;-84
2021/03/21 04:24:09;;;;;;;8.63;4.50;;;3.80;50.20;;;2.62;43.32;98882.19;5103730;28;20409;-83
2021/03/21 04:26:42;;;;;;;5.93;3.90;;;3.80;50.10;;;2.55;43.42;98881.22;5104616;28;20823;-84
2021/03/21 04:29:18;;;;;;;7.95;4.22;;;3.70;50.30;;;2.43;43.77;98879.88;5104178;28;20398;-84
2021/03/21 04:31:46;;;;;;;10.32;4.68;;;3.60;50.60;;;2.43;43.73;98877.25;5106389;28;20652;-82
2021/03/21 04:34:15;;;;;;;5.83;4.20;;;3.60;50.70;;;2.39;43.96;98874.19;5107946;28;20406;-84
2021/03/21 04:36:45;;;;;;;7.43;4.32;;;3.60;50.90;;;2.44;43.79;98868.44;5105069;28;20402;-84
2021/03/21 04:39:14;;;;;;;6.57;4.25;;;3.60;51.10;;;2.45;44.25;98870.09;5105862;28;20926;-85
2021/03/21 04:41:46;;;;;;;7.53;4.35;;;3.60;51.20;;;2.51;44.28;98867.63;5105742;28;20418;-85
2021/03/21 04:44:17;;;;;;;10.53;4.37;;;3.70;51.20;;;2.55;44.40;98860.28;5084960;28;20461;-85
2021/03/21 04:46:49;;;;;;;8.30;4.57;;;3.70;51.30;;;2.62;43.99;98863.88;5084097;28;20404;-85
2021/03/21 04:49:19;;;;;;;12.02;4.68;;;3.70;51.20;;;2.60;44.22;98850.97;5086954;28;20851;-84
2021/03/21 04:51:47;;;;;;;7.03;4.38;;;3.80;51.20;;;2.69;44.43;98846.56;5088549;28;20502;-82
2021/03/21 04:54:20;;;;;;;6.05;4.22;;;3.80;51.50;;;2.62;44.54;98845.59;5087600;28;20411;-85
2021/03/21 04:57:09;;;;;;;7.00;4.40;;;3.80;51.60;;;2.68;44.75;98840.50;5086695;28;20532;-85
2021/03/21 04:59:38;;;;;;;7.78;4.55;;;3.80;51.80;;;2.62;44.61;98828.09;5086094;28;20411;-85
2021/03/21 05:02:10;;;;;;;8.05;4.68;;;3.80;51.60;;;2.67;44.36;98836.25;5085319;28;20510;-86
2021/03/21 05:04:43;;;;;;;9.10;4.60;;;3.80;51.60;;;2.72;44.31;98833.13;5084721;28;20419;-85
2021/03/21 05:07:27;;;;;;;8.27;4.68;;;3.90;51.50;;;2.68;44.96;98842.31;5085546;28;20400;-85
2021/03/21 05:10:01;;;;;;;9.40;4.68;;;3.80;51.90;;;2.75;44.64;98839.84;5092842;28;20494;-84
2021/03/21 05:12:38;;;;;;;7.45;4.18;;;3.80;51.90;;;2.64;45.14;98836.59;5096278;28;20403;-85
2021/03/21 05:15:17;;;;;;;7.47;4.50;;;3.80;52.20;;;2.66;44.89;98841.66;5089845;28;20422;-85
2021/03/21 05:17:56;;;;;;;6.72;4.20;;;3.70;52.10;;;2.65;45.08;98853.09;5086148;28;20430;-85
2021/03/21 05:20:33;;;;;;;7.77;4.40;;;3.70;52.30;;;2.56;45.33;98854.88;5086207;28;20487;-83
2021/03/21 05:23:16;;;;;;;6.85;4.75;;;3.80;52.30;;;2.52;45.23;98860.63;5085147;28;20924;-86
2021/03/21 05:25:51;;;;;;;8.85;4.20;;;3.70;52.50;;;2.52;45.68;98853.59;5085285;28;20473;-85
2021/03/21 05:28:39;;;;;;;6.82;4.28;;;3.60;52.80;;;2.49;45.75;98853.91;5086951;28;20415;-85
2021/03/21 05:31:05;;;;;;;7.63;4.33;;;3.60;53.00;;;2.41;46.22;98863.53;5084814;28;20414;-85
2021/03/21 05:33:31;;;;;;;8.15;4.35;;;3.60;53.30;;;2.37;46.62;98864.84;5085145;28;20410;-85
2021/03/21 05:36:04;;;;;;;6.35;4.43;;;3.50;54.40;;;2.35;46.44;98870.25;5083484;28;20829;-85
2021/03/21 05:38:46;;;;;;;8.27;4.70;;;3.60;53.90;;;2.36;46.77;98866.66;5084542;28;20912;-85
2021/03/21 05:42:01;;;;;;;7.95;4.75;;;3.50;53.90;;;2.50;46.35;98870.41;5084816;28;20734;-84
2021/03/21 05:45:10;;;;;;;7.75;4.30;;;3.60;53.80;;;2.58;46.23;98866.00;5084832;28;20407;-84
2021/03/21 05:48:08;;;;;;;7.32;4.28;;;3.70;53.80;;;2.71;45.74;98863.69;5074848;28;20442;-84
2021/03/21 05:51:19;;;;;;;8.93;4.20;;;3.80;53.20;;;2.61;45.87;98854.41;5080219;28;20451;-84
2021/03/21 05:55:04;;;;;;;7.82;4.20;;;3.80;53.20;;;2.74;45.78;98857.34;5093327;28;20426;-83
2021/03/21 05:58:22;;;;;;;6.65;4.53;;;3.80;53.10;;;2.72;45.51;98854.88;5037129;28;20445;-85
2021/03/21 06:01:20;;;;;;;6.60;4.40;;;3.90;52.90;;;2.75;45.38;98852.91;5092576;28;20502;-85
2021/03/21 06:04:38;;;;;;;6.40;3.88;;;4.00;52.60;;;2.69;45.60;98834.31;5095538;28;20412;-82
2021/03/21 06:07:56;;;;;;;7.63;3.97;;;3.90;52.80;;;2.82;45.39;98831.19;5093195;28;20513;-85
2021/03/21 06:11:40;;;;;;;6.43;3.97;;;3.90;52.80;;;2.99;45.08;98829.34;5088052;28;20482;-85
2021/03/21 06:15:12;;;;;;;5.57;3.83;;;4.10;52.30;;;2.97;45.09;98829.50;5093818;28;20844;-84
2021/03/21 06:18:41;;;;;;;5.97;4.00;;;4.10;52.30;;;2.78;45.86;98826.47;5082086;28;20436;-84
2021/03/21 06:21:45;;;;;;;11.82;4.20;;;4.00;52.60;;;2.67;46.01;98827.59;5074430;28;20471;-82
2021/03/21 06:24:47;;;;;;;7.47;3.97;;;3.80;53.20;;;2.66;46.40;98821.56;5092661;28;20410;-84
2021/03/21 06:28:02;;;;;;;8.93;4.22;;;3.80;53.60;;;2.75;46.15;98819.75;5080501;28;20419;-82
2021/03/21 06:31:04;;;;;;;6.83;4.10;;;3.90;53.60;;;2.82;45.59;98823.34;5062789;28;20442;-83
2021/03/21 06:33:46;;;;;;;6.90;4.32;;;3.90;53.20;;;2.76;46.14;98836.25;5080676;28;20487;-84
2021/03/21 06:36:27;;;;;;;7.38;4.07;;;3.90;53.30;;;2.72;46.20;98833.97;5082803;28;20515;-83
2021/03/21 06:39:33;;;;;;;7.63;4.10;;;3.90;53.60;;;2.75;46.37;98835.44;5088157;28;20488;-82
2021/03/21 06:42:48;;;;;;;10.02;4.38;;;3.90;53.60;;;2.91;46.18;98827.56;5083348;28;20494;-80
2021/03/21 06:46:04;;;;;;;5.78;3.95;;;4.00;53.60;;;2.94;46.46;98835.06;5107001;28;20422;-83
2021/03/21 06:49:14;;;;;;;6.30;4.00;;;4.10;53.70;;;2.92;46.23;98833.63;5116748;28;20420;-84
2021/03/21 06:51:55;;;;;;;8.05;4.22;;;4.00;53.80;;;2.99;46.55;98830.16;5115913;28;20414;-82
2021/03/21 06:54:55;;;;;;;6.47;4.03;;;4.10;54.40;;;2.86;46.75;98827.22;5107513;28;20910;-81
2021/03/21 06:58:23;;;;;;;8.63;4.53;;;4.10;54.00;;;3.11;46.01;98814.91;5107155;28;20413;-84
2021/03/21 07:01:18;;;;;;;7.30;3.95;;;4.10;54.40;;;3.14;45.63;98819.81;5085833;28;20429;-84
2021/03/21 07:04:56;;;;;;;7.03;3.50;;;4.20;53.30;;;3.14;45.75;98819.81;5104754;28;20504;-84
2021/03/21 07:08:18;;;;;;;7.95;4.10;;;4.20;53.40;;;3.13;45.79;98817.38;5045739;28;20532;-82
2021/03/21 07:11:14;;;;;;;8.80;3.60;;;4.20;53.30;;;3.15;45.53;98818.03;5041362;28;20701;-81
2021/03/21 07:14:30;;;;;;;5.68;3.83;;;4.30;53.00;;;2.98;45.65;98812.03;5101648;28;20413;-84
2021/03/21 07:17:58;;;;;;;8.23;3.80;;;4.20;53.00;;;3.20;45.96;98807.84;5100912;28;20784;-83
2021/03/21 07:21:10;;;;;;;6.65;3.95;;;4.20;53.80;;;3.18;45.75;98802.78;5101426;28;20438;-82
2021/03/21 07:24:26;;;;;;;8.48;4.20;;;4.30;53.00;;;3.22;45.92;98795.44;5099088;28;20427;-82
2021/03/21 07:27:37;;;;;;;7.40;4.15;;;4.40;53.30;;;2.98;45.98;98791.09;5114003;28;20398;-81
2021/03/21 07:30:09;;;;;;;5.93;3.88;;;4.20;53.10;;;3.22;45.40;98790.19;5096069;28;20426;-82
2021/03/21 07:33:05;;;;;;;8.20;3.80;;;4.30;53.00;;;3.17;45.83;98795.91;5103033;28;20405;-83
2021/03/21 07:35:48;;;;;;;6.93;4.30;;;4.40;53.00;;;3.40;45.57;98811.69;5104487;28;20684;-81
2021/03/21 07:38:36;;;;;;;7.50;4.18;;;4.40;53.10;;;3.34;45.13;98812.38;5105159;28;20406;-81
2021/03/21 07:41:11;;;;;;;6.55;4.32;;;4.50;52.00;;;3.23;45.64;98810.16;5082667;28;20478;-82
2021/03/21 07:44:18;;;;;;;10.00;4.15;;;4.40;53.00;;;3.17;46.05;98808.19;5101072;28;20429;-81
2021/03/21 07:47:25;;;;;;;8.63;4.13;;;4.30;53.30;;;3.10;45.98;98814.09;5101441;28;20476;-82
2021/03/21 07:50:22;;;;;;;6.93;4.05;;;4.30;53.40;;;3.25;45.78;98808.97;5099461;28;20467;-80
2021/03/21 07:53:01;;;;;;;8.13;3.92;;;4.40;53.20;;;3.28;45.41;98815.69;5101339;28;20428;-83
2021/03/21 07:55:36;;;;;;;7.03;4.00;;;4.40;52.90;;;3.48;44.69;98811.66;5102540;28;20414;-81
2021/03/21 07:58:21;;;;;;;6.32;4.30;;;4.50;52.60;;;3.48;45.14;98804.63;5102731;28;20757;-81
2021/03/21 08:00:48;;;;;;;8.57;4.13;;;4.60;52.50;;;3.61;44.54;98804.06;5102738;28;20467;-80
2021/03/21 08:03:32;;;;;;;6.13;3.72;;;4.70;52.30;;;3.65;44.82;98801.94;5102283;28;20394;-81
2021/03/21 08:06:02;;;;;;;7.22;3.70;;;4.80;52.30;;;3.56;45.00;98797.72;5103123;28;20445;-80
2021/03/21 08:08:32;;;;;;;6.57;3.90;;;4.70;52.20;;;3.46;45.34;98797.91;5103127;28;20428;-82
2021/03/21 08:11:02;;;;;;;5.88;3.70;;;4.60;52.60;;;3.46;45.48;98798.75;5104115;28;20508;-81
2021/03/21 08:13:42;;;;;;;6.40;4.13;;;4.60;52.70;;;3.46;45.45;98792.69;5102349;28;20698;-81
2021/03/21 08:16:20;;;;;;;8.45;4.35;;;4.60;52.80;;;3.66;45.30;98790.47;5104360;28;20440;-80
2021/03/21 08:18:49;;;;;;;6.95;3.83;;;4.70;52.80;;;3.65;45.36;98789.66;5103863;28;20433;-81
2021/03/21 08:21:23;;;;;;;8.50;4.47;;;4.70;52.50;;;3.52;45.33;98786.78;5101889;28;20421;-81
2021/03/21 08:23:52;;;;;;;7.63;4.17;;;4.70;52.40;;;3.74;45.38;98788.63;5101810;28;20856;-81
2021/03/21 08:26:28;;;;;;;5.47;3.80;;;4.80;52.90;;;3.79;45.20;98785.47;5102408;28;20421;-81
2021/03/21 08:29:07;;;;;;;5.70;4.43;;;4.80;52.50;;;3.56;45.64;98772.34;5084266;28;20460;-82
2021/03/21 08:31:38;;;;;;;8.18;4.50;;;4.80;52.70;;;3.59;45.45;98773.81;5103425;28;20671;-80
2021/03/21 08:34:43;;;;;;;8.20;4.47;;;4.70;52.70;;;3.70;45.44;98757.69;5103243;28;20421;-82
2021/03/21 08:37:41;;;;;;;8.20;4.72;;;4.80;52.90;;;3.82;45.42;98756.34;5090078;28;20410;-81
2021/03/21 08:40:23;;;;;;;7.50;4.50;;;4.90;52.80;;;3.84;45.41;98759.56;5099578;28;20461;-85
2021/03/21 08:42:54;;;;;;;7.82;4.65;;;5.00;52.70;;;4.00;44.79;98748.97;5104581;28;20429;-81
2021/03/21 08:45:36;;;;;;;7.75;4.45;;;5.00;52.20;;;4.15;44.49;98744.59;5108821;28;20817;-85
2021/03/21 08:48:28;;;;;;;9.55;4.10;;;5.20;52.00;;;4.20;44.37;98747.53;5105595;28;20390;-85
2021/03/21 08:50:58;;;;;;;5.93;4.00;;;5.30;51.90;;;4.34;44.01;98745.09;5095586;28;20422;-83
2021/03/21 08:53:53;;;;;;;8.98;4.80;;;5.30;51.60;;;4.23;44.41;98728.00;5113858;28;20409;-82
2021/03/21 08:56:25;;;;;;;7.28;4.50;;;5.40;51.70;;;4.32;44.43;98728.72;5113915;28;20417;-85
2021/03/21 08:59:09;;;;;;;7.63;4.47;;;5.40;51.80;;;4.20;44.32;98729.19;5114402;28;20462;-83
2021/03/21 09:01:35;;;;;;;6.78;4.55;;;5.40;51.50;;;4.20;45.15;98726.56;5108009;28;20422;-80
2021/03/21 09:04:23;;;;;;;14.10;4.50;;;5.40;52.10;;;4.37;44.47;98724.56;5104322;28;20417;-81
2021/03/21 09:06:50;;;;;;;9.43;4.70;;;5.50;52.00;;;4.32;44.64;98726.13;5102854;28;20402;-85
2021/03/21 09:09:34;;;;;;;9.98;4.57;;;5.40;51.80;;;4.45;44.62;98732.38;5102603;28;20446;-84
2021/03/21 09:12:31;;;;;;;9.77;4.25;;;5.50;52.00;;;4.25;44.67;98732.06;5101174;28;20493;-84
2021/03/21 09:15:38;;;;;;;9.35;4.90;;;5.50;51.70;;;4.41;44.99;98746.03;5084327;28;20489;-84
2021/03/21 09:18:26;;;;;;;9.60;4.67;;;5.50;52.20;;;4.26;44.86;98749.44;5109443;28;20860;-84
2021/03/21 09:21:23;;;;;;;6.60;4.57;;;5.40;52.10;;;4.26;45.01;98746.81;5108169;28;20413;-85
2021/03/21 09:24:08;;;;;;;10.25;5.25;;;5.40;52.30;;;4.32;44.90;98742.66;5103557;28;20417;-87
2021/03/21 09:26:46;;;;;;;12.02;5.00;;;5.40;52.20;;;4.25;45.27;98745.19;5108228;28;20406;-87
2021/03/21 09:29:32;;;;;;;7.85;4.97;;;5.40;52.40;;;4.27;45.08;98739.75;5113418;28;20406;-86
2021/03/21 09:32:05;;;;;;;7.63;4.45;;;5.40;52.40;;;4.29;44.91;98741.19;5108728;28;20459;-86
2021/03/21 09:34:53;;;;;;;8.30;4.78;;;5.40;52.30;;;4.50;44.89;98747.56;5108910;28;20414;-83
2021/03/21 09:37:24;;;;;;;9.73;4.88;;;5.50;52.40;;;4.50;44.97;98752.81;5109281;28;20483;-83
2021/03/21 09:40:02;;;;;;;8.65;4.50;;;5.60;52.10;;;4.43;44.92;98746.66;5093202;28;20409;-84
2021/03/21 09:42:29;;;;;;;8.95;5.07;;;5.60;52.20;;;4.54;44.93;98747.03;5109467;28;20425;-84
2021/03/21 09:44:56;;;;;;;7.53;4.77;;;5.60;52.20;;;4.47;45.03;98759.22;5107128;28;20554;-84
2021/03/21 09:47:32;;;;;;;12.10;4.78;;;5.60;52.20;;;4.66;44.80;98755.28;5087114;28;20420;-83
2021/03/21 09:50:38;;;;;;;7.70;4.70;;;5.70;52.30;;;4.74;44.79;98760.44;5105166;28;20497;-83
2021/03/21 09:53:45;;;;;;;10.25;5.53;;;5.80;52.20;;;4.79;44.90;98759.91;5105132;28;20453;-83
2021/03/21 09:56:19;;;;;;;8.65;5.32;;;5.80;52.20;;;4.75;44.90;98761.25;5104742;28;20405;-82
2021/03/21 09:58:54;;;;;;;10.20;4.97;;;5.80;52.30;;;4.84;44.94;98752.28;5106513;28;20807;-83
2021/03/21 10:01:29;;;;;;;8.33;5.13;;;5.90;52.40;;;4.88;44.82;98754.41;5106591;28;20484;-84
2021/03/21 10:04:15;;;;;;;11.63;5.90;;;5.90;52.30;;;4.52;45.68;98756.88;5104465;28;20494;-84
2021/03/21 10:06:44;;;;;;;10.38;5.50;;;5.70;52.60;;;4.60;45.82;98754.19;5103897;28;20402;-84
2021/03/21 10:09:18;;;;;;;9.03;5.67;;;5.70;53.40;;;4.70;45.92;98755.72;5103722;28;20722;-83
2021/03/21 10:11:47;;;;;;;9.15;5.30;;;5.70;53.20;;;4.76;45.48;98752.38;5103181;28;20421;-84
2021/03/21 10:14:48;;;;;;;10.82;5.95;;;5.80;53.20;;;4.61;46.33;98762.84;5104266;28;20397;-83
2021/03/21 10:17:55;;;;;;;10.57;5.90;;;5.70;53.70;;;4.70;46.46;98748.69;5086236;28;20438;-84
2021/03/21 10:21:01;;;;;;;10.77;5.68;;;5.70;53.80;;;4.82;48.74;98756.91;5106525;28;20450;-83
2021/03/21 10:24:14;;;;;;;9.07;6.00;;;5.90;56.10;;;4.66;49.70;98756.06;5106910;28;20390;-84
2021/03/21 10:27:31;;;;;;;12.20;5.93;;;5.90;57.10;;;4.61;50.25;98774.16;5104133;28;20417;-82
2021/03/21 10:30:27;;;;;;;9.75;6.63;;;5.70;58.00;;;4.68;51.12;98764.59;5115685;28;20481;-84
2021/03/21 10:33:34;;;;;;;9.38;6.35;;;5.80;59.00;;;4.72;50.91;98745.88;5096230;28;20420;-83
2021/03/21 10:36:01;;;;;;;10.77;6.78;;;5.90;58.90;;;4.73;51.56;98758.81;5116041;28;20437;-81
2021/03/21 10:38:52;;;;;;;11.02;5.75;;;5.80;59.20;;;4.43;53.70;98759.78;5116989;28;20412;-84
2021/03/21 10:41:57;;;;;;;13.77;6.95;;;5.60;61.70;;;4.51;55.15;98757.06;5115480;28;20425;-84
2021/03/21 10:45:00;;;;;;;12.50;6.00;;;5.60;63.50;;;4.43;56.99;98750.09;5111605;28;20768;-84
2021/03/21 10:47:49;;;;;;;9.27;6.38;;;5.60;65.50;;;4.26;59.89;98754.69;5104620;28;20692;-83
2021/03/21 10:50:54;;;;;;;9.65;6.45;;;5.40;69.60;;;4.01;62.20;98753.22;5105228;28;20406;-83
2021/03/21 10:53:32;;;;;;;10.10;6.93;;;5.20;72.10;;;3.85;62.49;98746.31;5104126;28;20394;-84
2021/03/21 10:56:27;;;;;;;11.40;8.48;;;5.00;73.60;;;3.91;63.62;98755.25;5105040;28;20513;-82
2021/03/21 10:59:22;;;;;;;11.93;8.23;;;5.00;75.40;;;3.98;63.23;98747.53;5100897;28;20429;-81
2021/03/21 11:01:49;;;;;;;11.95;8.25;;;5.10;74.50;;;4.12;61.91;98750.22;5103600;28;20422;-84
2021/03/21 11:04:32;;;;;;;11.50;8.55;;;5.20;73.60;;;4.27;62.10;98751.06;5104120;28;20441;-85
2021/03/21 11:07:09;;;;;;;15.20;9.48;;;5.30;73.80;;;4.21;62.16;98740.47;5104698;28;20413;-84
2021/03/21 11:09:48;;;;;;;16.60;10.15;;;5.40;73.60;;;4.33;60.33;98735.59;5103924;28;20440;-84
2021/03/21 11:12:26;;;;;;;16.05;9.25;;;5.40;71.70;;;4.53;60.06;98713.94;5102258;28;20412;-83
2021/03/21 11:14:53;;;;;;;14.88;9.27;;;5.60;71.40;;;4.65;59.31;98711.69;5085411;28;20418;-84
2021/03/21 11:17:25;;;;;;;19.23;9.48;;;5.70;70.30;;;4.75;58.24;98711.41;5103548;28;20430;-85
2021/03/21 11:19:57;;;;;;;13.18;9.10;;;5.80;68.90;;;4.60;56.86;98706.16;5085996;28;20421;-86
2021/03/21 11:22:32;;;;;;;13.35;8.70;;;5.80;67.10;;;4.77;56.53;98715.47;5101995;28;20707;-84
2021/03/21 11:24:59;;;;;;;13.20;8.95;;;5.80;67.10;;;4.81;55.82;98708.88;5102514;28;20410;-84
2021/03/21 11:27:30;;;;;;;16.90;8.35;;;5.90;65.80;;;4.95;55.65;98708.06;5084171;28;20444;-85
2021/03/21 11:30:12;;;;;;;13.73;9.07;;;6.00;65.60;;;4.98;53.61;98707.69;5103008;28;20398;-82
2021/03/21 11:32:41;;;;;;;14.75;7.93;;;6.10;63.40;;;4.87;53.51;98709.97;5084889;28;20524;-84
2021/03/21 11:35:14;;;;;;;15.57;8.10;;;6.00;62.90;;;4.75;53.94;98698.28;5104460;28;20776;-85